sensor_id;sensor_type;location;lat;lon;timestamp;pressure;altitude;pressure_sealevel;temperature;humidity
4767;BME280;2397;53.576;9.746;2022-09-03T00:01:42;101694.53;;;15.34;56.89
4767;BME280;2397;53.576;9.746;2022-09-03T00:04:56;101687.56;;;15.33;57.16
4767;BME280;2397;53.576;9.746;2022-09-03T00:11:10;101684.16;;;15.40;56.86
4767;BME280;2397;53.576;9.746;2022-09-03T00:14:08;101687.38;;;15.16;57.46
4767;BME280;2397;53.576;9.746;2022-09-03T00:17:12;101688.25;;;15.15;57.77
4767;BME280;2397;53.576;9.746;2022-09-03T00:20:07;101687.31;;;15.09;57.75
4767;BME280;2397;53.576;9.746;2022-09-03T00:23:04;101689.88;;;15.03;57.33
4767;BME280;2397;53.576;9.746;2022-09-03T00:29:05;101684.72;;;15.08;57.86
4767;BME280;2397;53.576;9.746;2022-09-03T00:32:00;101686.59;;;15.26;57.68
4767;BME280;2397;53.576;9.746;2022-09-03T00:34:57;101687.34;;;15.13;58.44
4767;BME280;2397;53.576;9.746;2022-09-03T00:37:51;101690.88;;;15.16;57.03
4767;BME280;2397;53.576;9.746;2022-09-03T00:48:01;101693.19;;;14.87;59.05
4767;BME280;2397;53.576;9.746;2022-09-03T00:51:27;101687.97;;;14.87;58.64
4767;BME280;2397;53.576;9.746;2022-09-03T00:57:38;101688.16;;;15.05;58.28
4767;BME280;2397;53.576;9.746;2022-09-03T01:00:31;101686.28;;;14.92;59.07
4767;BME280;2397;53.576;9.746;2022-09-03T01:03:51;101687.25;;;15.00;58.89
4767;BME280;2397;53.576;9.746;2022-09-03T01:07:01;101688.09;;;14.99;58.25
4767;BME280;2397;53.576;9.746;2022-09-03T01:13:11;101680.03;;;14.76;59.60
4767;BME280;2397;53.576;9.746;2022-09-03T01:29:56;101677.41;;;14.74;58.54
4767;BME280;2397;53.576;9.746;2022-09-03T01:32:57;101667.88;;;14.78;58.51
4767;BME280;2397;53.576;9.746;2022-09-03T01:36:08;101665.19;;;14.67;59.10
4767;BME280;2397;53.576;9.746;2022-09-03T01:39:03;101670.41;;;14.69;58.99
4767;BME280;2397;53.576;9.746;2022-09-03T01:42:45;101672.16;;;14.73;59.65
4767;BME280;2397;53.576;9.746;2022-09-03T01:45:50;101679.88;;;14.64;60.14
4767;BME280;2397;53.576;9.746;2022-09-03T01:49:05;101675.69;;;14.75;59.53
4767;BME280;2397;53.576;9.746;2022-09-03T01:52:10;101673.72;;;14.57;59.92
4767;BME280;2397;53.576;9.746;2022-09-03T01:55:17;101674.44;;;14.47;60.73
4767;BME280;2397;53.576;9.746;2022-09-03T01:58:38;101672.91;;;14.61;59.41
4767;BME280;2397;53.576;9.746;2022-09-03T02:01:31;101667.59;;;14.55;59.69
4767;BME280;2397;53.576;9.746;2022-09-03T02:04:26;101670.19;;;14.55;60.72
4767;BME280;2397;53.576;9.746;2022-09-03T02:07:17;101667.47;;;14.44;60.80
4767;BME280;2397;53.576;9.746;2022-09-03T02:10:18;101667.38;;;14.36;61.15
4767;BME280;2397;53.576;9.746;2022-09-03T02:13:13;101664.03;;;14.48;59.97
4767;BME280;2397;53.576;9.746;2022-09-03T02:16:11;101673.63;;;14.51;59.79
4767;BME280;2397;53.576;9.746;2022-09-03T02:19:07;101675.34;;;14.49;59.79
4767;BME280;2397;53.576;9.746;2022-09-03T02:22:00;101670.00;;;14.39;59.93
4767;BME280;2397;53.576;9.746;2022-09-03T02:24:51;101671.91;;;14.53;59.72
4767;BME280;2397;53.576;9.746;2022-09-03T02:27:42;101669.38;;;14.59;59.90
4767;BME280;2397;53.576;9.746;2022-09-03T02:30:35;101670.88;;;14.38;59.85
4767;BME280;2397;53.576;9.746;2022-09-03T02:33:26;101673.47;;;14.38;60.18
4767;BME280;2397;53.576;9.746;2022-09-03T02:36:20;101665.66;;;14.38;60.04
4767;BME280;2397;53.576;9.746;2022-09-03T02:39:15;101670.75;;;14.29;61.01
4767;BME280;2397;53.576;9.746;2022-09-03T02:42:06;101667.31;;;14.32;60.79
4767;BME280;2397;53.576;9.746;2022-09-03T02:45:38;101663.09;;;14.41;60.84
4767;BME280;2397;53.576;9.746;2022-09-03T02:48:32;101661.31;;;14.37;61.49
4767;BME280;2397;53.576;9.746;2022-09-03T02:51:23;101670.75;;;14.29;61.46
4767;BME280;2397;53.576;9.746;2022-09-03T02:54:14;101675.81;;;14.17;61.56
4767;BME280;2397;53.576;9.746;2022-09-03T02:57:06;101664.66;;;14.27;61.30
4767;BME280;2397;53.576;9.746;2022-09-03T02:59:57;101663.56;;;14.10;61.64
4767;BME280;2397;53.576;9.746;2022-09-03T03:02:48;101664.47;;;14.15;61.10
4767;BME280;2397;53.576;9.746;2022-09-03T03:05:44;101665.38;;;14.15;61.56
4767;BME280;2397;53.576;9.746;2022-09-03T03:08:35;101661.91;;;14.18;61.82
4767;BME280;2397;53.576;9.746;2022-09-03T03:11:25;101672.38;;;14.21;61.38
4767;BME280;2397;53.576;9.746;2022-09-03T03:14:17;101671.63;;;14.30;61.20
4767;BME280;2397;53.576;9.746;2022-09-03T03:17:08;101663.59;;;14.13;61.61
4767;BME280;2397;53.576;9.746;2022-09-03T03:19:58;101675.78;;;14.14;62.87
4767;BME280;2397;53.576;9.746;2022-09-03T03:22:48;101666.97;;;14.05;62.58
4767;BME280;2397;53.576;9.746;2022-09-03T03:25:40;101665.06;;;13.94;62.34
4767;BME280;2397;53.576;9.746;2022-09-03T03:28:31;101678.97;;;13.96;62.89
4767;BME280;2397;53.576;9.746;2022-09-03T03:31:23;101676.50;;;14.03;61.97
4767;BME280;2397;53.576;9.746;2022-09-03T03:34:14;101678.13;;;13.98;62.44
4767;BME280;2397;53.576;9.746;2022-09-03T03:37:04;101676.38;;;13.97;62.93
4767;BME280;2397;53.576;9.746;2022-09-03T03:39:54;101679.81;;;13.93;63.17
4767;BME280;2397;53.576;9.746;2022-09-03T03:42:44;101677.34;;;14.04;62.32
4767;BME280;2397;53.576;9.746;2022-09-03T03:45:36;101682.53;;;14.02;62.30
4767;BME280;2397;53.576;9.746;2022-09-03T03:48:26;101688.50;;;13.95;63.46
4767;BME280;2397;53.576;9.746;2022-09-03T03:51:17;101693.50;;;13.80;63.29
4767;BME280;2397;53.576;9.746;2022-09-03T03:54:08;101693.59;;;13.86;63.38
4767;BME280;2397;53.576;9.746;2022-09-03T03:56:58;101690.00;;;13.79;63.31
4767;BME280;2397;53.576;9.746;2022-09-03T03:59:50;101695.75;;;13.58;64.37
4767;BME280;2397;53.576;9.746;2022-09-03T04:02:41;101695.16;;;13.76;62.97
4767;BME280;2397;53.576;9.746;2022-09-03T04:05:31;101694.25;;;13.73;64.59
4767;BME280;2397;53.576;9.746;2022-09-03T04:08:22;101702.06;;;13.73;63.04
4767;BME280;2397;53.576;9.746;2022-09-03T04:11:15;101688.13;;;13.70;63.17
4767;BME280;2397;53.576;9.746;2022-09-03T04:14:06;101692.69;;;13.85;62.76
4767;BME280;2397;53.576;9.746;2022-09-03T04:16:56;101690.09;;;13.87;62.36
4767;BME280;2397;53.576;9.746;2022-09-03T04:19:47;101690.00;;;13.79;63.61
4767;BME280;2397;53.576;9.746;2022-09-03T04:22:37;101690.09;;;13.85;63.14
4767;BME280;2397;53.576;9.746;2022-09-03T04:25:27;101684.00;;;13.83;63.36
4767;BME280;2397;53.576;9.746;2022-09-03T04:28:17;101690.75;;;13.72;63.51
4767;BME280;2397;53.576;9.746;2022-09-03T04:31:09;101687.97;;;13.60;65.18
4767;BME280;2397;53.576;9.746;2022-09-03T04:34:01;101684.59;;;13.65;63.83
4767;BME280;2397;53.576;9.746;2022-09-03T04:36:52;101686.34;;;13.66;64.22
4767;BME280;2397;53.576;9.746;2022-09-03T04:39:43;101686.19;;;13.57;64.97
4767;BME280;2397;53.576;9.746;2022-09-03T04:42:34;101694.78;;;13.53;65.28
4767;BME280;2397;53.576;9.746;2022-09-03T04:45:25;101691.38;;;13.57;64.35
4767;BME280;2397;53.576;9.746;2022-09-03T04:48:16;101689.53;;;13.50;64.44
4767;BME280;2397;53.576;9.746;2022-09-03T04:51:09;101686.94;;;13.51;64.13
4767;BME280;2397;53.576;9.746;2022-09-03T04:54:01;101701.00;;;13.61;64.29
4767;BME280;2397;53.576;9.746;2022-09-03T04:56:52;101694.03;;;13.60;64.06
4767;BME280;2397;53.576;9.746;2022-09-03T04:59:42;101698.13;;;13.44;65.01
4767;BME280;2397;53.576;9.746;2022-09-03T05:02:33;101698.00;;;13.38;65.37
4767;BME280;2397;53.576;9.746;2022-09-03T05:05:23;101700.59;;;13.38;66.20
4767;BME280;2397;53.576;9.746;2022-09-03T05:08:13;101701.69;;;13.51;65.91
4767;BME280;2397;53.576;9.746;2022-09-03T05:11:04;101704.25;;;13.48;65.71
4767;BME280;2397;53.576;9.746;2022-09-03T05:13:56;101704.75;;;13.28;67.00
4767;BME280;2397;53.576;9.746;2022-09-03T05:16:46;101702.59;;;13.53;66.02
4767;BME280;2397;53.576;9.746;2022-09-03T05:19:36;101699.03;;;13.48;65.94
4767;BME280;2397;53.576;9.746;2022-09-03T05:22:26;101696.28;;;13.37;65.79
4767;BME280;2397;53.576;9.746;2022-09-03T05:25:17;101697.88;;;13.32;66.32
4767;BME280;2397;53.576;9.746;2022-09-03T05:28:08;101688.47;;;13.37;65.78
4767;BME280;2397;53.576;9.746;2022-09-03T05:31:10;101688.53;;;13.42;65.63
4767;BME280;2397;53.576;9.746;2022-09-03T05:34:03;101694.78;;;13.53;65.87
4767;BME280;2397;53.576;9.746;2022-09-03T05:36:53;101689.66;;;13.56;65.46
4767;BME280;2397;53.576;9.746;2022-09-03T05:39:43;101686.09;;;13.51;66.76
4767;BME280;2397;53.576;9.746;2022-09-03T05:42:33;101693.69;;;13.39;65.74
4767;BME280;2397;53.576;9.746;2022-09-03T05:45:26;101691.34;;;13.54;65.49
4767;BME280;2397;53.576;9.746;2022-09-03T05:48:19;101699.22;;;13.60;64.87
4767;BME280;2397;53.576;9.746;2022-09-03T05:51:12;101700.13;;;13.61;65.09
4767;BME280;2397;53.576;9.746;2022-09-03T05:54:06;101706.22;;;13.63;65.79
4767;BME280;2397;53.576;9.746;2022-09-03T05:56:58;101707.09;;;13.63;67.43
4767;BME280;2397;53.576;9.746;2022-09-03T05:59:48;101707.16;;;13.66;65.38
4767;BME280;2397;53.576;9.746;2022-09-03T06:02:40;101703.78;;;13.74;65.86
4767;BME280;2397;53.576;9.746;2022-09-03T06:05:30;101695.28;;;13.84;63.20
4767;BME280;2397;53.576;9.746;2022-09-03T06:08:21;101698.00;;;13.92;63.95
4767;BME280;2397;53.576;9.746;2022-09-03T06:11:12;101692.88;;;13.96;63.31
4767;BME280;2397;53.576;9.746;2022-09-03T06:14:05;101692.19;;;14.10;63.86
4767;BME280;2397;53.576;9.746;2022-09-03T06:16:55;101687.97;;;14.19;63.90
4767;BME280;2397;53.576;9.746;2022-09-03T06:19:45;101694.97;;;14.23;61.83
4767;BME280;2397;53.576;9.746;2022-09-03T06:22:35;101696.00;;;14.33;63.59
4767;BME280;2397;53.576;9.746;2022-09-03T06:25:25;101690.91;;;14.44;61.85
4767;BME280;2397;53.576;9.746;2022-09-03T06:28:16;101691.00;;;14.52;63.41
4767;BME280;2397;53.576;9.746;2022-09-03T06:31:08;101685.13;;;14.67;61.60
4767;BME280;2397;53.576;9.746;2022-09-03T06:34:00;101684.50;;;14.88;61.26
4767;BME280;2397;53.576;9.746;2022-09-03T06:36:51;101691.50;;;14.93;60.04
4767;BME280;2397;53.576;9.746;2022-09-03T06:39:41;101690.78;;;15.08;61.23
4767;BME280;2397;53.576;9.746;2022-09-03T06:42:31;101689.91;;;15.06;64.72
4767;BME280;2397;53.576;9.746;2022-09-03T06:45:24;101686.59;;;15.26;62.04
4767;BME280;2397;53.576;9.746;2022-09-03T06:48:14;101688.44;;;15.38;59.42
4767;BME280;2397;53.576;9.746;2022-09-03T06:51:14;101689.31;;;15.35;59.16
4767;BME280;2397;53.576;9.746;2022-09-03T06:54:08;101694.75;;;15.63;59.15
4767;BME280;2397;53.576;9.746;2022-09-03T06:57:00;101696.47;;;15.58;58.00
4767;BME280;2397;53.576;9.746;2022-09-03T06:59:51;101698.44;;;15.90;57.55
4767;BME280;2397;53.576;9.746;2022-09-03T07:02:44;101694.91;;;15.78;57.64
4767;BME280;2397;53.576;9.746;2022-09-03T07:05:10;101690.63;;;15.93;59.27
4767;BME280;2397;53.576;9.746;2022-09-03T07:07:37;101695.94;;;16.02;57.27
4767;BME280;2397;53.576;9.746;2022-09-03T07:10:04;101691.78;;;16.40;57.72
4767;BME280;2397;53.576;9.746;2022-09-03T07:12:31;101692.72;;;16.51;55.67
4767;BME280;2397;53.576;9.746;2022-09-03T07:15:02;101683.91;;;16.33;55.08
4767;BME280;2397;53.576;9.746;2022-09-03T07:17:29;101683.19;;;16.65;56.85
4767;BME280;2397;53.576;9.746;2022-09-03T07:19:56;101687.53;;;16.66;54.61
4767;BME280;2397;53.576;9.746;2022-09-03T07:22:22;101690.25;;;16.90;55.34
4767;BME280;2397;53.576;9.746;2022-09-03T07:24:56;101689.38;;;16.91;53.21
4767;BME280;2397;53.576;9.746;2022-09-03T07:27:23;101691.16;;;17.01;53.62
4767;BME280;2397;53.576;9.746;2022-09-03T07:29:49;101685.94;;;17.10;53.73
4767;BME280;2397;53.576;9.746;2022-09-03T07:32:15;101690.31;;;17.25;54.11
4767;BME280;2397;53.576;9.746;2022-09-03T07:34:42;101685.06;;;17.70;54.04
4767;BME280;2397;53.576;9.746;2022-09-03T07:37:09;101683.31;;;17.70;53.96
4767;BME280;2397;53.576;9.746;2022-09-03T07:39:36;101686.81;;;17.68;51.52
4767;BME280;2397;53.576;9.746;2022-09-03T07:42:03;101674.53;;;18.21;50.15
4767;BME280;2397;53.576;9.746;2022-09-03T07:44:29;101691.13;;;18.18;48.82
4767;BME280;2397;53.576;9.746;2022-09-03T07:46:56;101689.25;;;18.50;48.98
4767;BME280;2397;53.576;9.746;2022-09-03T07:49:22;101681.13;;;19.07;47.12
4767;BME280;2397;53.576;9.746;2022-09-03T07:51:49;101688.72;;;19.44;45.73
4767;BME280;2397;53.576;9.746;2022-09-03T07:54:17;101687.53;;;19.80;45.24
4767;BME280;2397;53.576;9.746;2022-09-03T07:56:43;101674.50;;;20.46;43.67
4767;BME280;2397;53.576;9.746;2022-09-03T07:59:10;101683.13;;;20.57;43.79
4767;BME280;2397;53.576;9.746;2022-09-03T08:01:37;101683.81;;;20.76;42.26
4767;BME280;2397;53.576;9.746;2022-09-03T08:04:07;101679.75;;;20.50;44.91
4767;BME280;2397;53.576;9.746;2022-09-03T08:06:36;101681.50;;;20.48;43.91
4767;BME280;2397;53.576;9.746;2022-09-03T08:09:05;101682.41;;;20.44;43.99
4767;BME280;2397;53.576;9.746;2022-09-03T08:11:36;101689.38;;;19.69;44.12
4767;BME280;2397;53.576;9.746;2022-09-03T08:14:05;101682.34;;;18.29;46.88
4767;BME280;2397;53.576;9.746;2022-09-03T08:16:37;101681.47;;;18.28;47.62
4767;BME280;2397;53.576;9.746;2022-09-03T08:19:04;101683.94;;;18.64;46.89
4767;BME280;2397;53.576;9.746;2022-09-03T08:21:32;101673.28;;;18.98;47.60
4767;BME280;2397;53.576;9.746;2022-09-03T08:23:58;101677.50;;;19.22;45.84
4767;BME280;2397;53.576;9.746;2022-09-03T08:26:33;101678.19;;;19.47;45.41
4767;BME280;2397;53.576;9.746;2022-09-03T08:29:01;101682.59;;;19.39;45.49
4767;BME280;2397;53.576;9.746;2022-09-03T08:31:28;101681.88;;;20.89;47.03
4767;BME280;2397;53.576;9.746;2022-09-03T08:33:57;101671.91;;;20.43;44.96
4767;BME280;2397;53.576;9.746;2022-09-03T08:36:28;101678.66;;;20.68;42.06
4767;BME280;2397;53.576;9.746;2022-09-03T08:38:57;101674.63;;;20.38;43.02
4767;BME280;2397;53.576;9.746;2022-09-03T08:44:29;101679.59;;;20.61;43.16
4767;BME280;2397;53.576;9.746;2022-09-03T08:47:25;101668.03;;;20.05;44.78
4767;BME280;2397;53.576;9.746;2022-09-03T08:50:02;101670.69;;;19.98;45.33
4767;BME280;2397;53.576;9.746;2022-09-03T08:52:39;101674.19;;;20.00;45.45
4767;BME280;2397;53.576;9.746;2022-09-03T08:57:48;101672.63;;;19.84;49.35
4767;BME280;2397;53.576;9.746;2022-09-03T09:00:16;101670.41;;;19.33;45.18
4767;BME280;2397;53.576;9.746;2022-09-03T09:11:22;101677.22;;;19.57;46.68
4767;BME280;2397;53.576;9.746;2022-09-03T09:13:58;101675.53;;;19.48;45.37
4767;BME280;2397;53.576;9.746;2022-09-03T09:19:27;101676.44;;;19.46;46.55
4767;BME280;2397;53.576;9.746;2022-09-03T09:22:02;101673.94;;;19.26;45.55
4767;BME280;2397;53.576;9.746;2022-09-03T09:24:37;101686.00;;;19.52;46.26
4767;BME280;2397;53.576;9.746;2022-09-03T09:27:06;101664.94;;;19.59;46.01
4767;BME280;2397;53.576;9.746;2022-09-03T09:29:35;101669.25;;;19.65;46.31
4767;BME280;2397;53.576;9.746;2022-09-03T09:32:02;101662.78;;;20.00;46.64
4767;BME280;2397;53.576;9.746;2022-09-03T09:34:34;101663.09;;;19.71;44.72
4767;BME280;2397;53.576;9.746;2022-09-03T09:37:05;101664.66;;;19.92;45.96
4767;BME280;2397;53.576;9.746;2022-09-03T09:39:33;101667.16;;;20.03;46.67
4767;BME280;2397;53.576;9.746;2022-09-03T09:42:07;101665.78;;;19.61;44.70
4767;BME280;2397;53.576;9.746;2022-09-03T09:44:40;101666.81;;;19.45;47.19
4767;BME280;2397;53.576;9.746;2022-09-03T09:47:13;101658.06;;;19.46;45.19
4767;BME280;2397;53.576;9.746;2022-09-03T09:52:13;101662.53;;;19.33;43.93
4767;BME280;2397;53.576;9.746;2022-09-03T09:54:43;101659.16;;;19.14;44.82
4767;BME280;2397;53.576;9.746;2022-09-03T09:57:24;101660.09;;;19.10;44.55
4767;BME280;2397;53.576;9.746;2022-09-03T10:00:12;101664.25;;;19.37;43.52
4767;BME280;2397;53.576;9.746;2022-09-03T10:02:46;101665.13;;;19.36;43.07
4767;BME280;2397;53.576;9.746;2022-09-03T10:05:25;101642.22;;;19.52;42.08
4767;BME280;2397;53.576;9.746;2022-09-03T10:08:01;101655.16;;;19.74;43.51
4767;BME280;2397;53.576;9.746;2022-09-03T10:10:32;101647.09;;;19.94;44.59
4767;BME280;2397;53.576;9.746;2022-09-03T10:13:10;101649.81;;;19.86;41.18
4767;BME280;2397;53.576;9.746;2022-09-03T10:15:45;101646.31;;;19.86;41.46
4767;BME280;2397;53.576;9.746;2022-09-03T10:21:42;101658.56;;;19.85;40.89
4767;BME280;2397;53.576;9.746;2022-09-03T10:26:59;101641.06;;;19.87;41.70
4767;BME280;2397;53.576;9.746;2022-09-03T10:29:27;101625.25;;;19.90;40.76
4767;BME280;2397;53.576;9.746;2022-09-03T10:32:20;101639.25;;;19.89;43.24
4767;BME280;2397;53.576;9.746;2022-09-03T10:35:07;101632.84;;;20.16;42.66
4767;BME280;2397;53.576;9.746;2022-09-03T10:37:54;101621.16;;;20.38;42.01
4767;BME280;2397;53.576;9.746;2022-09-03T10:40:39;101624.81;;;20.27;40.63
4767;BME280;2397;53.576;9.746;2022-09-03T10:43:23;101624.53;;;20.46;41.89
4767;BME280;2397;53.576;9.746;2022-09-03T10:46:21;101630.50;;;20.59;41.36
4767;BME280;2397;53.576;9.746;2022-09-03T10:51:38;101617.34;;;20.60;41.01
4767;BME280;2397;53.576;9.746;2022-09-03T10:54:23;101612.97;;;20.58;39.81
4767;BME280;2397;53.576;9.746;2022-09-03T10:57:15;101619.38;;;20.40;40.33
4767;BME280;2397;53.576;9.746;2022-09-03T10:59:45;101615.63;;;20.58;41.89
4767;BME280;2397;53.576;9.746;2022-09-03T11:05:18;101612.59;;;20.87;40.99
4767;BME280;2397;53.576;9.746;2022-09-03T11:07:53;101610.56;;;21.04;38.51
4767;BME280;2397;53.576;9.746;2022-09-03T11:10:29;101613.31;;;20.97;39.85
4767;BME280;2397;53.576;9.746;2022-09-03T11:15:36;101605.59;;;21.87;38.33
4767;BME280;2397;53.576;9.746;2022-09-03T11:18:28;101609.94;;;21.90;36.74
4767;BME280;2397;53.576;9.746;2022-09-03T11:21:00;101598.72;;;21.29;37.06
4767;BME280;2397;53.576;9.746;2022-09-03T11:23:41;101598.16;;;22.08;36.39
4767;BME280;2397;53.576;9.746;2022-09-03T11:26:11;101601.88;;;21.51;36.53
4767;BME280;2397;53.576;9.746;2022-09-03T11:34:05;101593.16;;;20.96;38.11
4767;BME280;2397;53.576;9.746;2022-09-03T11:36:37;101587.72;;;21.56;36.27
4767;BME280;2397;53.576;9.746;2022-09-03T11:41:58;101575.81;;;23.01;33.60
4767;BME280;2397;53.576;9.746;2022-09-03T11:44:35;101576.13;;;22.89;33.53
4767;BME280;2397;53.576;9.746;2022-09-03T11:49:49;101576.59;;;23.05;33.10
4767;BME280;2397;53.576;9.746;2022-09-03T11:52:27;101596.63;;;22.40;34.38
4767;BME280;2397;53.576;9.746;2022-09-03T11:54:54;101568.75;;;22.25;33.68
4767;BME280;2397;53.576;9.746;2022-09-03T11:57:31;101566.75;;;22.38;33.75
4767;BME280;2397;53.576;9.746;2022-09-03T12:00:10;101567.91;;;23.01;33.11
4767;BME280;2397;53.576;9.746;2022-09-03T12:02:47;101565.97;;;22.72;34.25
4767;BME280;2397;53.576;9.746;2022-09-03T12:08:45;101569.84;;;22.57;33.11
4767;BME280;2397;53.576;9.746;2022-09-03T12:11:33;101561.78;;;22.24;34.45
4767;BME280;2397;53.576;9.746;2022-09-03T12:14:25;101572.84;;;22.79;33.75
4767;BME280;2397;53.576;9.746;2022-09-03T12:17:07;101567.03;;;22.65;32.28
4767;BME280;2397;53.576;9.746;2022-09-03T12:19:47;101564.66;;;22.90;32.53
4767;BME280;2397;53.576;9.746;2022-09-03T12:22:17;101569.53;;;22.69;32.67
4767;BME280;2397;53.576;9.746;2022-09-03T12:24:44;101563.56;;;23.66;31.16
4767;BME280;2397;53.576;9.746;2022-09-03T12:27:15;101560.81;;;22.67;31.66
4767;BME280;2397;53.576;9.746;2022-09-03T12:29:52;101551.25;;;22.97;33.03
4767;BME280;2397;53.576;9.746;2022-09-03T12:32:21;101552.00;;;23.37;32.51
4767;BME280;2397;53.576;9.746;2022-09-03T12:34:49;101551.69;;;23.17;34.15
4767;BME280;2397;53.576;9.746;2022-09-03T12:37:19;101548.00;;;23.22;32.62
4767;BME280;2397;53.576;9.746;2022-09-03T12:40:15;101550.44;;;23.63;31.47
4767;BME280;2397;53.576;9.746;2022-09-03T12:42:42;101543.06;;;23.08;31.99
4767;BME280;2397;53.576;9.746;2022-09-03T12:45:08;101558.56;;;22.88;31.64
4767;BME280;2397;53.576;9.746;2022-09-03T12:47:42;101553.19;;;22.91;33.35
4767;BME280;2397;53.576;9.746;2022-09-03T12:50:29;101527.44;;;23.01;31.53
4767;BME280;2397;53.576;9.746;2022-09-03T12:52:58;101525.59;;;24.00;30.24
4767;BME280;2397;53.576;9.746;2022-09-03T12:55:35;101542.38;;;23.36;30.74
4767;BME280;2397;53.576;9.746;2022-09-03T12:58:12;101539.69;;;22.67;31.07
4767;BME280;2397;53.576;9.746;2022-09-03T13:00:51;101537.84;;;23.07;35.19
4767;BME280;2397;53.576;9.746;2022-09-03T13:03:28;101540.25;;;23.49;31.06
4767;BME280;2397;53.576;9.746;2022-09-03T13:06:09;101531.13;;;23.28;31.90
4767;BME280;2397;53.576;9.746;2022-09-03T13:08:43;101522.91;;;23.39;34.16
4767;BME280;2397;53.576;9.746;2022-09-03T13:11:15;101535.91;;;22.41;31.61
4767;BME280;2397;53.576;9.746;2022-09-03T13:13:52;101528.03;;;23.12;31.56
4767;BME280;2397;53.576;9.746;2022-09-03T13:27:32;101529.94;;;23.71;32.28
4767;BME280;2397;53.576;9.746;2022-09-03T13:30:15;101519.31;;;23.41;30.47
4767;BME280;2397;53.576;9.746;2022-09-03T13:32:58;101520.88;;;23.17;30.30
4767;BME280;2397;53.576;9.746;2022-09-03T13:38:20;101517.13;;;22.55;31.57
4767;BME280;2397;53.576;9.746;2022-09-03T13:40:57;101521.59;;;22.88;33.78
4767;BME280;2397;53.576;9.746;2022-09-03T13:43:30;101530.56;;;23.17;32.57
4767;BME280;2397;53.576;9.746;2022-09-03T13:46:05;101514.69;;;23.17;30.56
4767;BME280;2397;53.576;9.746;2022-09-03T13:48:39;101516.47;;;24.10;31.60
4767;BME280;2397;53.576;9.746;2022-09-03T13:51:27;101508.03;;;23.67;29.81
4767;BME280;2397;53.576;9.746;2022-09-03T13:54:13;101509.13;;;24.47;29.84
4767;BME280;2397;53.576;9.746;2022-09-03T13:57:07;101507.69;;;23.78;30.84
4767;BME280;2397;53.576;9.746;2022-09-03T14:00:04;101512.69;;;24.17;31.93
4767;BME280;2397;53.576;9.746;2022-09-03T14:02:56;101510.94;;;23.25;29.92
4767;BME280;2397;53.576;9.746;2022-09-03T14:05:35;101514.84;;;23.43;30.58
4767;BME280;2397;53.576;9.746;2022-09-03T14:08:22;101505.50;;;23.63;31.19
4767;BME280;2397;53.576;9.746;2022-09-03T14:13:46;101509.28;;;23.84;29.81
4767;BME280;2397;53.576;9.746;2022-09-03T14:16:28;101499.31;;;23.94;30.42
4767;BME280;2397;53.576;9.746;2022-09-03T14:19:19;101500.25;;;23.30;29.62
4767;BME280;2397;53.576;9.746;2022-09-03T14:21:52;101500.94;;;23.68;30.05
4767;BME280;2397;53.576;9.746;2022-09-03T14:27:27;101512.84;;;23.83;29.18
4767;BME280;2397;53.576;9.746;2022-09-03T14:30:05;101511.50;;;23.99;29.04
4767;BME280;2397;53.576;9.746;2022-09-03T14:32:50;101504.53;;;23.97;29.44
4767;BME280;2397;53.576;9.746;2022-09-03T14:35:34;101489.38;;;23.42;30.16
4767;BME280;2397;53.576;9.746;2022-09-03T14:40:41;101487.25;;;23.22;29.45
4767;BME280;2397;53.576;9.746;2022-09-03T14:43:30;101487.50;;;23.76;29.57
4767;BME280;2397;53.576;9.746;2022-09-03T14:46:11;101495.69;;;23.37;29.18
4767;BME280;2397;53.576;9.746;2022-09-03T14:51:48;101494.16;;;23.59;28.05
4767;BME280;2397;53.576;9.746;2022-09-03T14:54:26;101494.78;;;23.38;29.61
4767;BME280;2397;53.576;9.746;2022-09-03T14:57:09;101482.38;;;23.40;29.12
4767;BME280;2397;53.576;9.746;2022-09-03T14:59:56;101492.78;;;23.46;28.80
4767;BME280;2397;53.576;9.746;2022-09-03T15:02:34;101487.47;;;23.14;30.74
4767;BME280;2397;53.576;9.746;2022-09-03T15:05:10;101494.25;;;23.56;29.50
4767;BME280;2397;53.576;9.746;2022-09-03T15:07:45;101488.44;;;23.43;28.58
4767;BME280;2397;53.576;9.746;2022-09-03T15:10:32;101482.78;;;23.26;30.17
4767;BME280;2397;53.576;9.746;2022-09-03T15:13:19;101488.91;;;23.58;28.82
4767;BME280;2397;53.576;9.746;2022-09-03T15:19:07;101484.47;;;23.58;28.92
4767;BME280;2397;53.576;9.746;2022-09-03T15:24:31;101495.66;;;23.04;28.77
4767;BME280;2397;53.576;9.746;2022-09-03T15:27:12;101497.13;;;22.81;28.71
4767;BME280;2397;53.576;9.746;2022-09-03T15:30:04;101495.03;;;22.94;28.58
4767;BME280;2397;53.576;9.746;2022-09-03T15:40:23;101496.75;;;22.60;30.11
4767;BME280;2397;53.576;9.746;2022-09-03T15:42:59;101504.28;;;22.41;29.99
4767;BME280;2397;53.576;9.746;2022-09-03T15:53:40;101487.78;;;21.92;30.37
4767;BME280;2397;53.576;9.746;2022-09-03T15:56:21;101492.84;;;22.02;31.40
4767;BME280;2397;53.576;9.746;2022-09-03T16:01:51;101487.81;;;21.46;32.18
4767;BME280;2397;53.576;9.746;2022-09-03T16:04:47;101493.16;;;21.43;32.29
4767;BME280;2397;53.576;9.746;2022-09-03T16:10:10;101505.44;;;21.42;33.65
4767;BME280;2397;53.576;9.746;2022-09-03T16:13:06;101498.97;;;21.62;32.73
4767;BME280;2397;53.576;9.746;2022-09-03T16:15:47;101506.75;;;21.19;32.97
4767;BME280;2397;53.576;9.746;2022-09-03T16:18:25;101505.69;;;21.30;32.66
4767;BME280;2397;53.576;9.746;2022-09-03T16:21:00;101511.44;;;21.03;33.27
4767;BME280;2397;53.576;9.746;2022-09-03T16:24:01;101499.22;;;21.01;32.24
4767;BME280;2397;53.576;9.746;2022-09-03T16:26:48;101499.19;;;21.02;32.99
4767;BME280;2397;53.576;9.746;2022-09-03T16:29:24;101496.94;;;20.79;32.96
4767;BME280;2397;53.576;9.746;2022-09-03T16:35:18;101501.94;;;20.96;32.90
4767;BME280;2397;53.576;9.746;2022-09-03T16:38:01;101502.66;;;21.03;33.13
4767;BME280;2397;53.576;9.746;2022-09-03T16:40:50;101501.25;;;20.85;32.87
4767;BME280;2397;53.576;9.746;2022-09-03T16:43:44;101499.66;;;20.75;32.74
4767;BME280;2397;53.576;9.746;2022-09-03T16:46:34;101517.47;;;20.56;32.56
4767;BME280;2397;53.576;9.746;2022-09-03T16:52:10;101518.44;;;20.48;33.58
4767;BME280;2397;53.576;9.746;2022-09-03T17:00:40;101516.03;;;20.34;33.81
4767;BME280;2397;53.576;9.746;2022-09-03T17:03:59;101518.53;;;20.42;33.91
4767;BME280;2397;53.576;9.746;2022-09-03T17:06:46;101510.53;;;20.50;34.36